sensor_id;sensor_type;location;lat;lon;timestamp;P1;durP1;ratioP1;P2;durP2;ratioP2
82511;SDS011;72152;65.012;25.464;2024-03-23T00:54:11;2.20;;;0.60;;
82511;SDS011;72152;65.012;25.464;2024-03-23T00:57:20;1.60;;;0.50;;
82511;SDS011;72152;65.012;25.464;2024-03-23T01:00:28;0.70;;;0.30;;
82511;SDS011;72152;65.012;25.464;2024-03-23T01:06:52;1.10;;;0.50;;
82511;SDS011;72152;65.012;25.464;2024-03-23T01:09:55;1.30;;;0.50;;
82511;SDS011;72152;65.012;25.464;2024-03-23T01:13:03;1.40;;;0.70;;
82511;SDS011;72152;65.012;25.464;2024-03-23T01:16:07;0.50;;;0.40;;
82511;SDS011;72152;65.012;25.464;2024-03-23T01:19:14;0.90;;;0.30;;
82511;SDS011;72152;65.012;25.464;2024-03-23T01:22:22;1.00;;;0.50;;
82511;SDS011;72152;65.012;25.464;2024-03-23T01:25:27;2.50;;;0.60;;
82511;SDS011;72152;65.012;25.464;2024-03-23T01:28:39;2.40;;;0.80;;
82511;SDS011;72152;65.012;25.464;2024-03-23T01:31:42;1.10;;;0.40;;
82511;SDS011;72152;65.012;25.464;2024-03-23T01:34:52;2.20;;;0.70;;
82511;SDS011;72152;65.012;25.464;2024-03-23T01:37:57;0.30;;;0.20;;
82511;SDS011;72152;65.012;25.464;2024-03-23T01:41:02;1.00;;;0.60;;
82511;SDS011;72152;65.012;25.464;2024-03-23T01:44:09;0.70;;;0.40;;
82511;SDS011;72152;65.012;25.464;2024-03-23T01:47:11;1.10;;;0.40;;
82511;SDS011;72152;65.012;25.464;2024-03-23T01:53:23;1.20;;;0.50;;
82511;SDS011;72152;65.012;25.464;2024-03-23T01:56:33;0.40;;;0.20;;
82511;SDS011;72152;65.012;25.464;2024-03-23T01:59:40;1.40;;;0.40;;
82511;SDS011;72152;65.012;25.464;2024-03-23T02:02:49;0.80;;;0.30;;
82511;SDS011;72152;65.012;25.464;2024-03-23T02:05:51;0.90;;;0.50;;
82511;SDS011;72152;65.012;25.464;2024-03-23T02:09:04;0.20;;;0.20;;
82511;SDS011;72152;65.012;25.464;2024-03-23T02:12:09;0.40;;;0.40;;
82511;SDS011;72152;65.012;25.464;2024-03-23T02:15:17;0.40;;;0.40;;
82511;SDS011;72152;65.012;25.464;2024-03-23T02:18:24;0.70;;;0.50;;
82511;SDS011;72152;65.012;25.464;2024-03-23T02:21:35;0.50;;;0.50;;
82511;SDS011;72152;65.012;25.464;2024-03-23T02:24:46;0.60;;;0.50;;
82511;SDS011;72152;65.012;25.464;2024-03-23T02:27:52;0.60;;;0.40;;
82511;SDS011;72152;65.012;25.464;2024-03-23T02:31:00;0.60;;;0.40;;
82511;SDS011;72152;65.012;25.464;2024-03-23T02:34:06;0.80;;;0.50;;
82511;SDS011;72152;65.012;25.464;2024-03-23T02:37:14;0.60;;;0.40;;
82511;SDS011;72152;65.012;25.464;2024-03-23T02:40:19;0.80;;;0.60;;
82511;SDS011;72152;65.012;25.464;2024-03-23T02:43:23;0.70;;;0.40;;
82511;SDS011;72152;65.012;25.464;2024-03-23T02:46:27;0.80;;;0.60;;
82511;SDS011;72152;65.012;25.464;2024-03-23T02:49:41;2.10;;;0.70;;
82511;SDS011;72152;65.012;25.464;2024-03-23T02:52:48;0.60;;;0.50;;
82511;SDS011;72152;65.012;25.464;2024-03-23T02:55:48;0.50;;;0.40;;
82511;SDS011;72152;65.012;25.464;2024-03-23T02:58:50;0.50;;;0.40;;
82511;SDS011;72152;65.012;25.464;2024-03-23T03:01:58;0.40;;;0.40;;
82511;SDS011;72152;65.012;25.464;2024-03-23T03:05:02;0.70;;;0.60;;
82511;SDS011;72152;65.012;25.464;2024-03-23T03:08:15;0.90;;;0.60;;
82511;SDS011;72152;65.012;25.464;2024-03-23T03:14:21;1.00;;;0.50;;
82511;SDS011;72152;65.012;25.464;2024-03-23T03:17:24;1.10;;;0.60;;
82511;SDS011;72152;65.012;25.464;2024-03-23T03:20:32;0.80;;;0.50;;
82511;SDS011;72152;65.012;25.464;2024-03-23T03:23:36;0.40;;;0.40;;
82511;SDS011;72152;65.012;25.464;2024-03-23T03:26:43;1.50;;;0.80;;
82511;SDS011;72152;65.012;25.464;2024-03-23T03:29:57;1.00;;;0.70;;
82511;SDS011;72152;65.012;25.464;2024-03-23T03:33:09;1.20;;;0.80;;
82511;SDS011;72152;65.012;25.464;2024-03-23T03:36:15;1.00;;;0.50;;
82511;SDS011;72152;65.012;25.464;2024-03-23T03:39:23;1.20;;;0.90;;
82511;SDS011;72152;65.012;25.464;2024-03-23T03:42:25;1.10;;;0.70;;
82511;SDS011;72152;65.012;25.464;2024-03-23T03:45:26;2.00;;;0.80;;
82511;SDS011;72152;65.012;25.464;2024-03-23T03:48:36;0.90;;;0.50;;
82511;SDS011;72152;65.012;25.464;2024-03-23T03:51:44;0.80;;;0.60;;
82511;SDS011;72152;65.012;25.464;2024-03-23T03:54:51;1.90;;;0.90;;
82511;SDS011;72152;65.012;25.464;2024-03-23T03:57:59;1.10;;;0.60;;
82511;SDS011;72152;65.012;25.464;2024-03-23T04:00:58;2.40;;;1.20;;
82511;SDS011;72152;65.012;25.464;2024-03-23T04:04:11;1.60;;;0.80;;
82511;SDS011;72152;65.012;25.464;2024-03-23T04:07:20;1.60;;;0.70;;
82511;SDS011;72152;65.012;25.464;2024-03-23T04:10:25;1.30;;;0.90;;
82511;SDS011;72152;65.012;25.464;2024-03-23T04:13:31;1.30;;;0.70;;
82511;SDS011;72152;65.012;25.464;2024-03-23T04:16:48;1.60;;;0.70;;
82511;SDS011;72152;65.012;25.464;2024-03-23T04:19:52;1.20;;;0.50;;
82511;SDS011;72152;65.012;25.464;2024-03-23T04:23:04;0.90;;;0.60;;
82511;SDS011;72152;65.012;25.464;2024-03-23T04:26:16;2.60;;;0.80;;
82511;SDS011;72152;65.012;25.464;2024-03-23T04:29:24;0.40;;;0.40;;
82511;SDS011;72152;65.012;25.464;2024-03-23T04:32:34;1.50;;;0.60;;
82511;SDS011;72152;65.012;25.464;2024-03-23T04:39:03;1.70;;;0.80;;
82511;SDS011;72152;65.012;25.464;2024-03-23T04:42:03;1.90;;;0.70;;
82511;SDS011;72152;65.012;25.464;2024-03-23T04:48:30;0.80;;;0.60;;
82511;SDS011;72152;65.012;25.464;2024-03-23T04:51:41;1.70;;;0.80;;
82511;SDS011;72152;65.012;25.464;2024-03-23T04:54:39;1.10;;;0.80;;
82511;SDS011;72152;65.012;25.464;2024-03-23T04:57:42;0.90;;;0.70;;
82511;SDS011;72152;65.012;25.464;2024-03-23T05:00:53;2.10;;;0.70;;
82511;SDS011;72152;65.012;25.464;2024-03-23T05:03:56;1.90;;;0.90;;
82511;SDS011;72152;65.012;25.464;2024-03-23T05:07:03;1.60;;;0.70;;
82511;SDS011;72152;65.012;25.464;2024-03-23T05:10:01;1.90;;;0.80;;
82511;SDS011;72152;65.012;25.464;2024-03-23T05:13:10;0.60;;;0.50;;
82511;SDS011;72152;65.012;25.464;2024-03-23T05:16:17;1.50;;;0.70;;
82511;SDS011;72152;65.012;25.464;2024-03-23T05:19:25;2.60;;;1.00;;
82511;SDS011;72152;65.012;25.464;2024-03-23T05:22:34;1.60;;;0.80;;
82511;SDS011;72152;65.012;25.464;2024-03-23T05:25:41;1.40;;;0.60;;
82511;SDS011;72152;65.012;25.464;2024-03-23T05:28:46;1.10;;;0.80;;
82511;SDS011;72152;65.012;25.464;2024-03-23T05:31:55;2.00;;;0.70;;
82511;SDS011;72152;65.012;25.464;2024-03-23T05:35:01;2.00;;;0.80;;
82511;SDS011;72152;65.012;25.464;2024-03-23T05:38:14;1.50;;;0.70;;
82511;SDS011;72152;65.012;25.464;2024-03-23T05:41:21;1.60;;;0.50;;
82511;SDS011;72152;65.012;25.464;2024-03-23T05:44:35;2.50;;;1.00;;
82511;SDS011;72152;65.012;25.464;2024-03-23T05:47:42;0.80;;;0.70;;
82511;SDS011;72152;65.012;25.464;2024-03-23T05:50:46;1.30;;;0.60;;
82511;SDS011;72152;65.012;25.464;2024-03-23T05:53:49;2.20;;;0.90;;
82511;SDS011;72152;65.012;25.464;2024-03-23T05:56:55;1.30;;;0.60;;
82511;SDS011;72152;65.012;25.464;2024-03-23T05:59:59;2.80;;;1.00;;
82511;SDS011;72152;65.012;25.464;2024-03-23T06:03:08;1.90;;;0.70;;
82511;SDS011;72152;65.012;25.464;2024-03-23T06:06:16;2.00;;;0.80;;
82511;SDS011;72152;65.012;25.464;2024-03-23T06:09:24;1.30;;;0.80;;
82511;SDS011;72152;65.012;25.464;2024-03-23T06:12:31;1.30;;;0.60;;
82511;SDS011;72152;65.012;25.464;2024-03-23T06:15:37;0.80;;;0.40;;
82511;SDS011;72152;65.012;25.464;2024-03-23T06:18:48;0.50;;;0.50;;
82511;SDS011;72152;65.012;25.464;2024-03-23T06:21:51;1.00;;;0.40;;
82511;SDS011;72152;65.012;25.464;2024-03-23T06:25:10;0.60;;;0.30;;
82511;SDS011;72152;65.012;25.464;2024-03-23T06:28:19;0.90;;;0.60;;
82511;SDS011;72152;65.012;25.464;2024-03-23T06:31:24;2.10;;;0.80;;
82511;SDS011;72152;65.012;25.464;2024-03-23T06:34:30;2.60;;;0.70;;
82511;SDS011;72152;65.012;25.464;2024-03-23T06:37:36;2.20;;;0.90;;
82511;SDS011;72152;65.012;25.464;2024-03-23T06:40:43;2.30;;;1.00;;
82511;SDS011;72152;65.012;25.464;2024-03-23T06:43:49;0.90;;;0.60;;
82511;SDS011;72152;65.012;25.464;2024-03-23T06:46:54;1.20;;;0.60;;
82511;SDS011;72152;65.012;25.464;2024-03-23T06:49:58;0.90;;;0.60;;
82511;SDS011;72152;65.012;25.464;2024-03-23T06:52:54;1.90;;;0.60;;
82511;SDS011;72152;65.012;25.464;2024-03-23T06:56:01;1.00;;;0.50;;
82511;SDS011;72152;65.012;25.464;2024-03-23T06:59:04;0.50;;;0.30;;
82511;SDS011;72152;65.012;25.464;2024-03-23T07:02:10;0.90;;;0.30;;
82511;SDS011;72152;65.012;25.464;2024-03-23T07:08:21;0.50;;;0.30;;
82511;SDS011;72152;65.012;25.464;2024-03-23T07:11:22;2.40;;;0.60;;
82511;SDS011;72152;65.012;25.464;2024-03-23T07:14:25;2.00;;;0.50;;
82511;SDS011;72152;65.012;25.464;2024-03-23T07:17:32;2.10;;;0.70;;
82511;SDS011;72152;65.012;25.464;2024-03-23T07:20:45;1.70;;;0.50;;
82511;SDS011;72152;65.012;25.464;2024-03-23T07:23:59;1.40;;;0.60;;
82511;SDS011;72152;65.012;25.464;2024-03-23T07:27:04;0.80;;;0.50;;
82511;SDS011;72152;65.012;25.464;2024-03-23T07:30:08;1.90;;;0.40;;
82511;SDS011;72152;65.012;25.464;2024-03-23T07:33:15;1.80;;;0.50;;
82511;SDS011;72152;65.012;25.464;2024-03-23T07:36:20;1.10;;;0.50;;
82511;SDS011;72152;65.012;25.464;2024-03-23T07:39:27;1.20;;;0.40;;
82511;SDS011;72152;65.012;25.464;2024-03-23T07:42:38;0.70;;;0.50;;
82511;SDS011;72152;65.012;25.464;2024-03-23T07:45:48;1.20;;;0.60;;
82511;SDS011;72152;65.012;25.464;2024-03-23T07:48:53;1.10;;;0.30;;
82511;SDS011;72152;65.012;25.464;2024-03-23T07:52:03;1.00;;;0.30;;
82511;SDS011;72152;65.012;25.464;2024-03-23T07:55:18;0.10;;;0.10;;
82511;SDS011;72152;65.012;25.464;2024-03-23T07:58:20;0.90;;;0.40;;
82511;SDS011;72152;65.012;25.464;2024-03-23T08:01:26;1.20;;;0.50;;
82511;SDS011;72152;65.012;25.464;2024-03-23T08:04:38;1.30;;;0.70;;
82511;SDS011;72152;65.012;25.464;2024-03-23T08:07:45;0.70;;;0.30;;
82511;SDS011;72152;65.012;25.464;2024-03-23T08:10:52;0.80;;;0.10;;
82511;SDS011;72152;65.012;25.464;2024-03-23T08:14:01;1.60;;;0.80;;
82511;SDS011;72152;65.012;25.464;2024-03-23T08:17:04;0.60;;;0.30;;
82511;SDS011;72152;65.012;25.464;2024-03-23T08:23:23;1.10;;;0.70;;
82511;SDS011;72152;65.012;25.464;2024-03-23T08:26:30;0.50;;;0.30;;
82511;SDS011;72152;65.012;25.464;2024-03-23T08:29:45;10.10;;;3.90;;
82511;SDS011;72152;65.012;25.464;2024-03-23T08:32:53;1.00;;;0.50;;
82511;SDS011;72152;65.012;25.464;2024-03-23T08:36:02;1.80;;;0.80;;
82511;SDS011;72152;65.012;25.464;2024-03-23T08:39:15;0.30;;;0.30;;
82511;SDS011;72152;65.012;25.464;2024-03-23T08:42:23;0.80;;;0.60;;
82511;SDS011;72152;65.012;25.464;2024-03-23T08:45:25;1.00;;;0.50;;
82511;SDS011;72152;65.012;25.464;2024-03-23T08:48:30;0.70;;;0.40;;
82511;SDS011;72152;65.012;25.464;2024-03-23T08:51:32;3.00;;;1.10;;
82511;SDS011;72152;65.012;25.464;2024-03-23T08:54:39;2.80;;;0.80;;
82511;SDS011;72152;65.012;25.464;2024-03-23T08:57:52;3.70;;;0.80;;
82511;SDS011;72152;65.012;25.464;2024-03-23T09:01:02;1.40;;;0.60;;
82511;SDS011;72152;65.012;25.464;2024-03-23T09:04:13;0.80;;;0.50;;
82511;SDS011;72152;65.012;25.464;2024-03-23T09:07:20;0.60;;;0.60;;
82511;SDS011;72152;65.012;25.464;2024-03-23T09:10:27;2.20;;;1.20;;
82511;SDS011;72152;65.012;25.464;2024-03-23T09:13:34;1.40;;;0.90;;
82511;SDS011;72152;65.012;25.464;2024-03-23T09:16:36;1.30;;;1.00;;
82511;SDS011;72152;65.012;25.464;2024-03-23T09:19:41;1.30;;;0.90;;
82511;SDS011;72152;65.012;25.464;2024-03-23T09:25:43;1.70;;;1.00;;
82511;SDS011;72152;65.012;25.464;2024-03-23T09:29:06;1.80;;;1.00;;
82511;SDS011;72152;65.012;25.464;2024-03-23T09:32:17;2.10;;;1.20;;
82511;SDS011;72152;65.012;25.464;2024-03-23T09:35:39;2.00;;;1.10;;
82511;SDS011;72152;65.012;25.464;2024-03-23T09:38:43;2.40;;;1.10;;
82511;SDS011;72152;65.012;25.464;2024-03-23T09:41:49;3.20;;;1.50;;
82511;SDS011;72152;65.012;25.464;2024-03-23T09:44:51;1.90;;;1.00;;
82511;SDS011;72152;65.012;25.464;2024-03-23T09:47:57;1.50;;;1.00;;
82511;SDS011;72152;65.012;25.464;2024-03-23T09:51:01;2.40;;;1.40;;
82511;SDS011;72152;65.012;25.464;2024-03-23T09:54:06;1.90;;;1.20;;
82511;SDS011;72152;65.012;25.464;2024-03-23T09:57:24;2.30;;;1.30;;
82511;SDS011;72152;65.012;25.464;2024-03-23T10:00:22;2.90;;;1.30;;
82511;SDS011;72152;65.012;25.464;2024-03-23T10:03:27;3.30;;;1.70;;
82511;SDS011;72152;65.012;25.464;2024-03-23T10:06:30;2.20;;;1.40;;
82511;SDS011;72152;65.012;25.464;2024-03-23T10:09:38;2.70;;;1.40;;
82511;SDS011;72152;65.012;25.464;2024-03-23T10:12:52;2.10;;;1.20;;
82511;SDS011;72152;65.012;25.464;2024-03-23T10:16:01;2.70;;;1.60;;
82511;SDS011;72152;65.012;25.464;2024-03-23T10:19:06;3.40;;;1.50;;
82511;SDS011;72152;65.012;25.464;2024-03-23T10:22:08;2.70;;;1.50;;
82511;SDS011;72152;65.012;25.464;2024-03-23T10:25:14;2.70;;;1.50;;
82511;SDS011;72152;65.012;25.464;2024-03-23T10:28:19;2.80;;;1.50;;
82511;SDS011;72152;65.012;25.464;2024-03-23T10:31:24;2.40;;;1.60;;
82511;SDS011;72152;65.012;25.464;2024-03-23T10:34:33;2.70;;;1.50;;
82511;SDS011;72152;65.012;25.464;2024-03-23T10:37:35;3.60;;;1.60;;
82511;SDS011;72152;65.012;25.464;2024-03-23T10:40:39;3.20;;;1.40;;
82511;SDS011;72152;65.012;25.464;2024-03-23T10:43:38;3.30;;;1.60;;
82511;SDS011;72152;65.012;25.464;2024-03-23T10:46:45;3.20;;;1.60;;
82511;SDS011;72152;65.012;25.464;2024-03-23T10:49:52;2.50;;;1.40;;
82511;SDS011;72152;65.012;25.464;2024-03-23T10:52:53;2.90;;;1.40;;
82511;SDS011;72152;65.012;25.464;2024-03-23T10:56:04;3.30;;;1.60;;
82511;SDS011;72152;65.012;25.464;2024-03-23T10:59:15;3.00;;;1.50;;
82511;SDS011;72152;65.012;25.464;2024-03-23T11:02:25;3.40;;;1.30;;
82511;SDS011;72152;65.012;25.464;2024-03-23T11:05:36;2.50;;;1.50;;
82511;SDS011;72152;65.012;25.464;2024-03-23T11:08:42;3.60;;;1.70;;
82511;SDS011;72152;65.012;25.464;2024-03-23T11:11:47;3.10;;;1.50;;
82511;SDS011;72152;65.012;25.464;2024-03-23T11:14:47;2.90;;;1.40;;
82511;SDS011;72152;65.012;25.464;2024-03-23T11:21:01;3.00;;;1.40;;
82511;SDS011;72152;65.012;25.464;2024-03-23T11:24:15;3.10;;;1.60;;
82511;SDS011;72152;65.012;25.464;2024-03-23T11:27:20;2.90;;;1.70;;
82511;SDS011;72152;65.012;25.464;2024-03-23T11:30:30;3.30;;;1.70;;
82511;SDS011;72152;65.012;25.464;2024-03-23T11:33:41;3.10;;;1.50;;
82511;SDS011;72152;65.012;25.464;2024-03-23T11:37:19;3.30;;;1.70;;
82511;SDS011;72152;65.012;25.464;2024-03-23T11:40:32;2.60;;;1.40;;
82511;SDS011;72152;65.012;25.464;2024-03-23T11:43:36;2.10;;;1.40;;
82511;SDS011;72152;65.012;25.464;2024-03-23T11:46:43;3.50;;;1.40;;
82511;SDS011;72152;65.012;25.464;2024-03-23T11:50:05;3.00;;;1.70;;
82511;SDS011;72152;65.012;25.464;2024-03-23T11:53:20;2.50;;;1.50;;
82511;SDS011;72152;65.012;25.464;2024-03-23T11:56:24;2.80;;;1.70;;
82511;SDS011;72152;65.012;25.464;2024-03-23T11:59:37;2.60;;;1.40;;
82511;SDS011;72152;65.012;25.464;2024-03-23T12:02:40;2.80;;;1.60;;
82511;SDS011;72152;65.012;25.464;2024-03-23T12:05:47;3.50;;;1.80;;
82511;SDS011;72152;65.012;25.464;2024-03-23T12:08:51;3.00;;;1.60;;
82511;SDS011;72152;65.012;25.464;2024-03-23T12:11:58;3.00;;;1.60;;
82511;SDS011;72152;65.012;25.464;2024-03-23T12:15:15;2.90;;;1.60;;
82511;SDS011;72152;65.012;25.464;2024-03-23T12:18:21;2.40;;;1.50;;
82511;SDS011;72152;65.012;25.464;2024-03-23T12:24:25;3.30;;;1.80;;
82511;SDS011;72152;65.012;25.464;2024-03-23T12:27:31;3.30;;;1.50;;
82511;SDS011;72152;65.012;25.464;2024-03-23T12:30:38;2.00;;;1.40;;
82511;SDS011;72152;65.012;25.464;2024-03-23T12:33:44;3.10;;;1.60;;
82511;SDS011;72152;65.012;25.464;2024-03-23T12:36:53;2.60;;;1.30;;
82511;SDS011;72152;65.012;25.464;2024-03-23T12:39:54;3.40;;;1.40;;
82511;SDS011;72152;65.012;25.464;2024-03-23T12:43:01;2.70;;;1.40;;
82511;SDS011;72152;65.012;25.464;2024-03-23T12:46:08;3.50;;;1.50;;
82511;SDS011;72152;65.012;25.464;2024-03-23T12:49:15;2.40;;;1.30;;
82511;SDS011;72152;65.012;25.464;2024-03-23T12:52:22;2.10;;;1.20;;
82511;SDS011;72152;65.012;25.464;2024-03-23T12:55:27;1.90;;;1.30;;
82511;SDS011;72152;65.012;25.464;2024-03-23T12:58:30;1.90;;;1.10;;
82511;SDS011;72152;65.012;25.464;2024-03-23T13:01:36;4.40;;;1.70;;
82511;SDS011;72152;65.012;25.464;2024-03-23T13:04:46;1.70;;;1.10;;
82511;SDS011;72152;65.012;25.464;2024-03-23T13:07:49;5.20;;;1.50;;
82511;SDS011;72152;65.012;25.464;2024-03-23T13:10:57;2.70;;;1.20;;
82511;SDS011;72152;65.012;25.464;2024-03-23T13:14:03;2.80;;;1.30;;
82511;SDS011;72152;65.012;25.464;2024-03-23T13:17:14;3.10;;;1.40;;
82511;SDS011;72152;65.012;25.464;2024-03-23T13:20:25;2.10;;;1.20;;
82511;SDS011;72152;65.012;25.464;2024-03-23T13:23:23;2.90;;;1.40;;
82511;SDS011;72152;65.012;25.464;2024-03-23T13:26:31;2.40;;;1.20;;
82511;SDS011;72152;65.012;25.464;2024-03-23T13:29:36;2.00;;;1.20;;
82511;SDS011;72152;65.012;25.464;2024-03-23T13:32:46;1.60;;;1.00;;
82511;SDS011;72152;65.012;25.464;2024-03-23T13:35:55;3.80;;;1.40;;
82511;SDS011;72152;65.012;25.464;2024-03-23T13:39:01;1.90;;;1.30;;
82511;SDS011;72152;65.012;25.464;2024-03-23T13:42:03;2.80;;;1.10;;
82511;SDS011;72152;65.012;25.464;2024-03-23T13:45:07;1.10;;;0.90;;
82511;SDS011;72152;65.012;25.464;2024-03-23T13:48:18;1.30;;;1.00;;
82511;SDS011;72152;65.012;25.464;2024-03-23T13:51:28;2.40;;;1.10;;
82511;SDS011;72152;65.012;25.464;2024-03-23T13:54:34;1.50;;;1.00;;
82511;SDS011;72152;65.012;25.464;2024-03-23T13:57:44;2.60;;;1.30;;
82511;SDS011;72152;65.012;25.464;2024-03-23T14:00:48;1.60;;;1.10;;
82511;SDS011;72152;65.012;25.464;2024-03-23T14:03:51;3.10;;;1.40;;
82511;SDS011;72152;65.012;25.464;2024-03-23T14:06:59;2.00;;;0.90;;
82511;SDS011;72152;65.012;25.464;2024-03-23T14:10:17;2.10;;;1.20;;
82511;SDS011;72152;65.012;25.464;2024-03-23T14:13:30;3.50;;;1.50;;
82511;SDS011;72152;65.012;25.464;2024-03-23T14:16:30;3.80;;;1.40;;
82511;SDS011;72152;65.012;25.464;2024-03-23T14:19:35;2.30;;;1.10;;
82511;SDS011;72152;65.012;25.464;2024-03-23T14:22:33;5.00;;;1.40;;
82511;SDS011;72152;65.012;25.464;2024-03-23T14:25:45;2.20;;;1.00;;
82511;SDS011;72152;65.012;25.464;2024-03-23T14:28:50;1.80;;;0.90;;
82511;SDS011;72152;65.012;25.464;2024-03-23T14:31:48;2.10;;;0.90;;
82511;SDS011;72152;65.012;25.464;2024-03-23T14:34:54;1.70;;;1.00;;
82511;SDS011;72152;65.012;25.464;2024-03-23T14:38:01;2.50;;;1.10;;
82511;SDS011;72152;65.012;25.464;2024-03-23T14:41:07;2.20;;;1.10;;
82511;SDS011;72152;65.012;25.464;2024-03-23T14:44:06;3.00;;;1.10;;
82511;SDS011;72152;65.012;25.464;2024-03-23T14:47:07;1.80;;;0.70;;
82511;SDS011;72152;65.012;25.464;2024-03-23T14:50:11;2.70;;;1.20;;
82511;SDS011;72152;65.012;25.464;2024-03-23T14:53:22;1.60;;;0.90;;
82511;SDS011;72152;65.012;25.464;2024-03-23T14:56:29;1.20;;;0.80;;
82511;SDS011;72152;65.012;25.464;2024-03-23T14:59:39;2.70;;;1.00;;
82511;SDS011;72152;65.012;25.464;2024-03-23T15:02:42;2.70;;;0.90;;
82511;SDS011;72152;65.012;25.464;2024-03-23T15:05:57;2.60;;;1.30;;
82511;SDS011;72152;65.012;25.464;2024-03-23T15:09:03;1.70;;;0.90;;
82511;SDS011;72152;65.012;25.464;2024-03-23T15:15:06;1.70;;;1.00;;
82511;SDS011;72152;65.012;25.464;2024-03-23T15:18:17;1.90;;;0.90;;
82511;SDS011;72152;65.012;25.464;2024-03-23T15:21:22;2.90;;;1.20;;
82511;SDS011;72152;65.012;25.464;2024-03-23T15:24:26;2.20;;;1.10;;
82511;SDS011;72152;65.012;25.464;2024-03-23T15:27:27;1.90;;;1.00;;
82511;SDS011;72152;65.012;25.464;2024-03-23T15:30:30;2.40;;;0.90;;
82511;SDS011;72152;65.012;25.464;2024-03-23T15:33:38;4.00;;;1.00;;
82511;SDS011;72152;65.012;25.464;2024-03-23T15:36:44;1.10;;;0.70;;
82511;SDS011;72152;65.012;25.464;2024-03-23T15:39:49;1.90;;;0.90;;
82511;SDS011;72152;65.012;25.464;2024-03-23T15:42:57;1.20;;;0.80;;
82511;SDS011;72152;65.012;25.464;2024-03-23T15:46:02;2.50;;;0.90;;
82511;SDS011;72152;65.012;25.464;2024-03-23T15:49:08;1.60;;;0.90;;
82511;SDS011;72152;65.012;25.464;2024-03-23T15:52:18;1.60;;;0.80;;
82511;SDS011;72152;65.012;25.464;2024-03-23T15:55:19;3.10;;;1.20;;
82511;SDS011;72152;65.012;25.464;2024-03-23T15:58:28;2.10;;;0.80;;
82511;SDS011;72152;65.012;25.464;2024-03-23T16:01:25;2.80;;;1.10;;
82511;SDS011;72152;65.012;25.464;2024-03-23T16:04:33;3.40;;;1.10;;
82511;SDS011;72152;65.012;25.464;2024-03-23T16:07:41;1.60;;;0.90;;
82511;SDS011;72152;65.012;25.464;2024-03-23T16:10:47;2.30;;;0.90;;
82511;SDS011;72152;65.012;25.464;2024-03-23T16:13:54;2.20;;;0.90;;
82511;SDS011;72152;65.012;25.464;2024-03-23T16:16:58;1.50;;;0.90;;
82511;SDS011;72152;65.012;25.464;2024-03-23T16:20:05;2.60;;;0.90;;
82511;SDS011;72152;65.012;25.464;2024-03-23T16:23:21;1.70;;;1.10;;
82511;SDS011;72152;65.012;25.464;2024-03-23T16:26:27;2.40;;;1.00;;
82511;SDS011;72152;65.012;25.464;2024-03-23T16:29:33;2.70;;;1.00;;
82511;SDS011;72152;65.012;25.464;2024-03-23T16:32:35;1.50;;;0.90;;
82511;SDS011;72152;65.012;25.464;2024-03-23T16:35:43;2.30;;;1.50;;
82511;SDS011;72152;65.012;25.464;2024-03-23T16:38:50;2.10;;;0.90;;
82511;SDS011;72152;65.012;25.464;2024-03-23T16:41:47;3.10;;;1.10;;
82511;SDS011;72152;65.012;25.464;2024-03-23T16:44:49;1.20;;;0.80;;
82511;SDS011;72152;65.012;25.464;2024-03-23T16:48:00;1.80;;;1.00;;
82511;SDS011;72152;65.012;25.464;2024-03-23T16:51:04;1.70;;;0.80;;
82511;SDS011;72152;65.012;25.464;2024-03-23T16:54:02;1.80;;;0.90;;
82511;SDS011;72152;65.012;25.464;2024-03-23T16:57:06;2.00;;;0.90;;
82511;SDS011;72152;65.012;25.464;2024-03-23T17:03:23;1.70;;;0.90;;
82511;SDS011;72152;65.012;25.464;2024-03-23T17:09:23;2.90;;;0.90;;
82511;SDS011;72152;65.012;25.464;2024-03-23T17:12:28;1.10;;;0.70;;
82511;SDS011;72152;65.012;25.464;2024-03-23T17:15:32;1.70;;;0.70;;
82511;SDS011;72152;65.012;25.464;2024-03-23T17:18:39;1.50;;;0.80;;
82511;SDS011;72152;65.012;25.464;2024-03-23T17:21:38;1.80;;;1.10;;
82511;SDS011;72152;65.012;25.464;2024-03-23T17:24:44;2.60;;;1.00;;
82511;SDS011;72152;65.012;25.464;2024-03-23T17:27:55;3.10;;;1.10;;
82511;SDS011;72152;65.012;25.464;2024-03-23T17:31:00;1.80;;;0.90;;
82511;SDS011;72152;65.012;25.464;2024-03-23T17:34:09;2.80;;;1.30;;
82511;SDS011;72152;65.012;25.464;2024-03-23T17:37:22;2.80;;;1.20;;
82511;SDS011;72152;65.012;25.464;2024-03-23T17:40:25;3.00;;;1.20;;
82511;SDS011;72152;65.012;25.464;2024-03-23T17:43:26;3.20;;;1.10;;
82511;SDS011;72152;65.012;25.464;2024-03-23T17:46:29;3.20;;;1.30;;
82511;SDS011;72152;65.012;25.464;2024-03-23T17:49:34;3.50;;;1.10;;
82511;SDS011;72152;65.012;25.464;2024-03-23T17:52:36;2.50;;;1.20;;
82511;SDS011;72152;65.012;25.464;2024-03-23T17:55:46;2.20;;;1.20;;
82511;SDS011;72152;65.012;25.464;2024-03-23T17:58:52;1.60;;;0.80;;
82511;SDS011;72152;65.012;25.464;2024-03-23T18:01:55;4.50;;;1.10;;
82511;SDS011;72152;65.012;25.464;2024-03-23T18:04:55;3.10;;;1.20;;
82511;SDS011;72152;65.012;25.464;2024-03-23T18:07:59;4.70;;;1.80;;
82511;SDS011;72152;65.012;25.464;2024-03-23T18:11:12;1.60;;;1.00;;
82511;SDS011;72152;65.012;25.464;2024-03-23T18:14:14;2.70;;;1.10;;
82511;SDS011;72152;65.012;25.464;2024-03-23T18:17:29;2.00;;;1.00;;
82511;SDS011;72152;65.012;25.464;2024-03-23T18:20:31;3.10;;;1.30;;
82511;SDS011;72152;65.012;25.464;2024-03-23T18:23:35;2.40;;;1.10;;
82511;SDS011;72152;65.012;25.464;2024-03-23T18:26:40;3.30;;;1.00;;
82511;SDS011;72152;65.012;25.464;2024-03-23T18:29:48;2.10;;;1.00;;
82511;SDS011;72152;65.012;25.464;2024-03-23T18:32:59;2.10;;;1.00;;
82511;SDS011;72152;65.012;25.464;2024-03-23T18:35:59;3.00;;;1.20;;
82511;SDS011;72152;65.012;25.464;2024-03-23T18:39:12;2.00;;;1.10;;
82511;SDS011;72152;65.012;25.464;2024-03-23T18:42:19;2.80;;;1.00;;
82511;SDS011;72152;65.012;25.464;2024-03-23T18:45:30;2.40;;;1.10;;
82511;SDS011;72152;65.012;25.464;2024-03-23T18:48:43;3.10;;;1.40;;
82511;SDS011;72152;65.012;25.464;2024-03-23T18:51:53;1.80;;;1.10;;
82511;SDS011;72152;65.012;25.464;2024-03-23T18:55:03;1.60;;;1.00;;
82511;SDS011;72152;65.012;25.464;2024-03-23T18:58:06;1.80;;;1.00;;
82511;SDS011;72152;65.012;25.464;2024-03-23T19:04:09;1.60;;;0.80;;
82511;SDS011;72152;65.012;25.464;2024-03-23T19:07:20;2.80;;;1.00;;
82511;SDS011;72152;65.012;25.464;2024-03-23T19:10:30;3.30;;;1.20;;
82511;SDS011;72152;65.012;25.464;2024-03-23T19:13:35;4.40;;;1.30;;
82511;SDS011;72152;65.012;25.464;2024-03-23T19:16:37;1.60;;;0.90;;
82511;SDS011;72152;65.012;25.464;2024-03-23T19:19:47;2.40;;;1.00;;
82511;SDS011;72152;65.012;25.464;2024-03-23T19:22:56;2.80;;;0.90;;
82511;SDS011;72152;65.012;25.464;2024-03-23T19:25:57;4.50;;;0.90;;
82511;SDS011;72152;65.012;25.464;2024-03-23T19:29:03;2.10;;;1.10;;
82511;SDS011;72152;65.012;25.464;2024-03-23T19:32:13;2.40;;;1.10;;
82511;SDS011;72152;65.012;25.464;2024-03-23T19:35:21;2.60;;;1.00;;
82511;SDS011;72152;65.012;25.464;2024-03-23T19:38:23;3.20;;;1.20;;
82511;SDS011;72152;65.012;25.464;2024-03-23T19:41:37;1.80;;;1.00;;
82511;SDS011;72152;65.012;25.464;2024-03-23T19:44:46;3.50;;;1.20;;
82511;SDS011;72152;65.012;25.464;2024-03-23T19:47:52;1.90;;;1.10;;
82511;SDS011;72152;65.012;25.464;2024-03-23T19:51:01;2.80;;;1.20;;
82511;SDS011;72152;65.012;25.464;2024-03-23T19:54:06;4.80;;;1.10;;
82511;SDS011;72152;65.012;25.464;2024-03-23T19:57:14;3.10;;;1.10;;
82511;SDS011;72152;65.012;25.464;2024-03-23T20:00:18;2.50;;;1.10;;
82511;SDS011;72152;65.012;25.464;2024-03-23T20:03:26;2.90;;;1.00;;